Time;durP1;ratioP1;P1;durP2;ratioP2;P2;SDS_P1;SDS_P2;PMS_P1;PMS_P2;Temp;Humidity;BMP_temperature;BMP_pressure;BME280_temperature;BME280_humidity;BME280_pressure;Samples;Min_cycle;Max_cycle;Signal;HPM_P1;HPM_P2
2022/05/29 00:01:14;;;;;;;2.70;1.15;;;16.20;42.20;;;;;;5026002;28;20295;-74
2022/05/29 00:03:40;;;;;;;1.58;1.02;;;16.20;42.40;;;;;;5062380;28;20652;-73
2022/05/29 00:06:06;;;;;;;2.60;1.17;;;16.20;42.50;;;;;;5031110;28;20440;-74
2022/05/29 00:08:36;;;;;;;2.55;1.20;;;16.10;42.40;;;;;;5062582;28;20032;-74
2022/05/29 00:11:02;;;;;;;3.47;1.75;;;16.10;42.50;;;;;;5066357;28;20035;-75
2022/05/29 00:13:28;;;;;;;3.38;1.40;;;16.10;42.70;;;;;;5045646;28;20037;-75
2022/05/29 00:15:54;;;;;;;1.65;1.30;;;16.00;43.20;;;;;;5072395;28;20032;-76
2022/05/29 00:18:20;;;;;;;2.35;1.00;;;16.00;42.70;;;;;;5075206;28;20294;-76
2022/05/29 00:20:51;;;;;;;1.25;0.90;;;16.00;42.80;;;;;;5070978;28;20043;-75
2022/05/29 00:23:17;;;;;;;2.25;1.20;;;15.90;42.80;;;;;;5051210;28;20059;-74
2022/05/29 00:25:46;;;;;;;1.75;1.05;;;15.90;42.80;;;;;;5070472;28;20089;-74
2022/05/29 00:28:12;;;;;;;2.08;1.25;;;15.90;42.90;;;;;;5049621;28;20502;-74
2022/05/29 00:30:40;;;;;;;2.45;1.45;;;15.90;43.00;;;;;;5067921;28;20036;-75
2022/05/29 00:33:07;;;;;;;2.58;1.58;;;15.80;42.90;;;;;;5068449;28;20036;-75
2022/05/29 00:35:34;;;;;;;2.45;1.10;;;15.80;43.00;;;;;;5068814;28;20039;-74
2022/05/29 00:38:00;;;;;;;3.55;1.20;;;15.80;43.10;;;;;;5068797;28;20373;-74
2022/05/29 00:40:28;;;;;;;1.60;1.00;;;15.70;43.00;;;;;;5049017;28;20035;-74
2022/05/29 00:42:54;;;;;;;1.77;1.25;;;15.70;43.10;;;;;;5067718;28;20389;-74
2022/05/29 00:45:22;;;;;;;2.42;1.23;;;15.70;43.20;;;;;;5057639;28;20040;-74
2022/05/29 00:47:48;;;;;;;4.15;1.13;;;15.70;43.30;;;;;;5029381;28;20045;-75
2022/05/29 00:50:21;;;;;;;5.28;2.00;;;15.70;43.40;;;;;;5047575;28;20084;-75
2022/05/29 00:52:48;;;;;;;1.63;1.17;;;15.60;43.30;;;;;;5024288;28;20128;-74
2022/05/29 00:55:19;;;;;;;1.17;0.90;;;15.60;43.30;;;;;;5022739;28;20021;-75
2022/05/29 00:57:52;;;;;;;2.25;1.10;;;15.60;43.40;;;;;;5045480;28;20037;-75
2022/05/29 01:00:25;;;;;;;2.17;1.35;;;15.60;43.50;;;;;;5028081;28;20033;-74
2022/05/29 01:02:52;;;;;;;;;;;15.50;43.40;;;;;;5023716;28;20033;-75
2022/05/29 01:05:19;;;;;;;2.97;1.35;;;15.50;43.30;;;;;;5030643;28;19916;-74
2022/05/29 01:07:51;;;;;;;2.97;1.23;;;15.50;43.70;;;;;;5047058;28;20083;-74
2022/05/29 01:10:17;;;;;;;2.67;1.10;;;15.50;44.00;;;;;;5046239;28;20056;-74
2022/05/29 01:13:17;;;;;;;4.30;1.75;;;15.40;43.20;;;;;;5046385;28;20262;-73
2022/05/29 01:16:07;;;;;;;2.00;1.33;;;15.40;43.50;;;;;;5007788;28;20032;-75
2022/05/29 01:18:59;;;;;;;2.17;1.13;;;15.40;43.60;;;;;;5044675;28;20112;-75
2022/05/29 01:21:49;;;;;;;2.80;1.95;;;15.40;43.60;;;;;;5045236;28;20041;-76
2022/05/29 01:24:48;;;;;;;2.88;1.63;;;15.30;43.60;;;;;;5041279;28;20033;-76
2022/05/29 01:27:47;;;;;;;1.30;1.17;;;15.30;43.70;;;;;;5000865;28;20028;-75
2022/05/29 01:30:25;;;;;;;2.95;1.20;;;15.30;43.70;;;;;;5004223;28;20021;-73
2022/05/29 01:33:12;;;;;;;2.42;1.17;;;15.20;43.60;;;;;;5046564;28;20370;-73
2022/05/29 01:35:47;;;;;;;2.63;1.50;;;15.20;43.70;;;;;;5036969;28;20032;-76
2022/05/29 01:38:26;;;;;;;3.72;1.50;;;15.20;43.70;;;;;;5019520;28;20030;-76
2022/05/29 01:40:58;;;;;;;2.72;1.33;;;15.20;43.90;;;;;;5046136;28;20222;-76
2022/05/29 01:43:42;;;;;;;1.38;1.23;;;15.20;43.90;;;;;;5045511;28;20029;-74
2022/05/29 01:46:21;;;;;;;1.20;1.10;;;15.20;44.10;;;;;;5029886;28;20041;-73
2022/05/29 01:48:59;;;;;;;2.58;1.45;;;15.20;44.10;;;;;;5033119;28;20171;-74
2022/05/29 01:52:06;;;;;;;3.13;1.10;;;15.10;44.10;;;;;;5067348;28;20388;-73
2022/05/29 01:54:37;;;;;;;3.25;1.33;;;15.10;44.20;;;;;;5057897;28;20043;-76
2022/05/29 01:57:45;;;;;;;2.05;1.30;;;15.00;43.90;;;;;;5063372;28;20028;-74
2022/05/29 02:00:11;;;;;;;3.25;1.60;;;15.00;44.00;;;;;;4959188;28;20050;-76
2022/05/29 02:02:38;;;;;;;1.95;1.30;;;15.00;44.00;;;;;;4965985;28;20051;-76
2022/05/29 02:05:15;;;;;;;4.07;1.90;;;15.00;44.20;;;;;;5009715;28;20522;-76
2022/05/29 02:07:49;;;;;;;3.90;1.63;;;15.00;44.20;;;;;;5049679;28;20388;-76
2022/05/29 02:10:49;;;;;;;2.75;1.42;;;15.00;44.30;;;;;;5054007;28;20518;-76
2022/05/29 02:13:26;;;;;;;4.18;1.42;;;15.00;44.50;;;;;;5061387;28;20032;-75
2022/05/29 02:16:08;;;;;;;1.40;1.17;;;14.90;44.20;;;;;;5054583;28;20371;-75
2022/05/29 02:18:47;;;;;;;1.70;1.00;;;14.90;44.30;;;;;;5040307;28;20032;-76
2022/05/29 02:21:50;;;;;;;3.22;1.25;;;14.90;44.40;;;;;;5066572;28;20032;-75
2022/05/29 02:24:20;;;;;;;1.80;1.17;;;14.80;44.40;;;;;;5063277;28;20068;-75
2022/05/29 02:26:57;;;;;;;3.33;1.50;;;14.80;44.30;;;;;;5048932;28;20024;-76
2022/05/29 02:29:23;;;;;;;2.40;1.60;;;14.80;44.50;;;;;;5048830;28;20036;-75
2022/05/29 02:32:04;;;;;;;2.40;1.30;;;14.80;44.50;;;;;;5031805;28;20055;-75
2022/05/29 02:34:33;;;;;;;2.33;1.10;;;14.80;44.70;;;;;;5069090;28;20105;-74
2022/05/29 02:37:30;;;;;;;3.35;1.63;;;14.70;44.50;;;;;;5061017;28;20103;-74
2022/05/29 02:40:17;;;;;;;2.55;1.10;;;14.70;44.70;;;;;;5073136;28;20227;-73
2022/05/29 02:42:57;;;;;;;1.40;1.25;;;14.70;44.70;;;;;;5054508;28;20043;-74
2022/05/29 02:46:01;;;;;;;1.75;1.10;;;14.60;44.60;;;;;;5057081;28;20080;-74
2022/05/29 02:48:27;;;;;;;3.45;1.20;;;14.60;44.80;;;;;;5066146;28;20036;-73
2022/05/29 02:51:03;;;;;;;3.00;1.75;;;14.50;44.50;;;;;;5058981;28;20021;-74
2022/05/29 02:53:32;;;;;;;5.13;2.10;;;14.50;44.70;;;;;;5073024;28;20036;-74
2022/05/29 02:55:58;;;;;;;2.35;1.30;;;14.50;44.70;;;;;;5078723;28;20392;-76
2022/05/29 02:58:28;;;;;;;1.33;1.00;;;14.50;44.80;;;;;;5055019;28;20078;-75
2022/05/29 03:01:18;;;;;;;1.25;0.95;;;14.40;44.80;;;;;;5054042;28;20400;-76
2022/05/29 03:03:47;;;;;;;2.22;0.98;;;14.40;44.90;;;;;;5068282;28;20733;-75
2022/05/29 03:06:26;;;;;;;2.60;1.30;;;14.40;44.80;;;;;;5049294;28;20656;-76
2022/05/29 03:09:17;;;;;;;1.42;1.33;;;14.40;45.00;;;;;;5064127;28;20029;-75
2022/05/29 03:11:45;;;;;;;3.58;1.20;;;14.30;44.90;;;;;;5047321;28;20179;-75
2022/05/29 03:14:40;;;;;;;4.25;1.23;;;14.30;44.80;;;;;;5065908;28;20423;-75
2022/05/29 03:17:27;;;;;;;1.80;1.05;;;14.30;45.00;;;;;;5031459;28;20043;-75
2022/05/29 03:19:59;;;;;;;1.63;1.05;;;14.30;44.80;;;;;;5053052;28;20036;-75
2022/05/29 03:22:46;;;;;;;1.55;1.20;;;14.20;44.80;;;;;;5048627;28;20105;-75
2022/05/29 03:25:21;;;;;;;3.72;1.25;;;14.20;44.80;;;;;;5062745;28;20040;-75
2022/05/29 03:27:49;;;;;;;2.58;1.23;;;14.20;44.90;;;;;;5065663;28;20135;-75
2022/05/29 03:30:35;;;;;;;3.55;1.08;;;14.20;44.90;;;;;;5045293;28;20103;-76
2022/05/29 03:33:06;;;;;;;2.80;1.13;;;14.10;44.90;;;;;;5034554;28;20063;-76
2022/05/29 03:35:53;;;;;;;1.30;1.17;;;14.10;44.90;;;;;;5046371;28;20064;-76
2022/05/29 03:38:19;;;;;;;2.35;0.85;;;14.00;44.90;;;;;;5043690;28;20052;-76
2022/05/29 03:40:46;;;;;;;2.05;1.00;;;14.00;45.40;;;;;;5065932;28;20044;-75
2022/05/29 03:43:12;;;;;;;2.00;0.80;;;14.00;44.90;;;;;;5064307;28;20033;-75
2022/05/29 03:45:38;;;;;;;2.33;1.02;;;14.00;44.90;;;;;;5033885;28;20079;-74
2022/05/29 03:48:05;;;;;;;2.13;1.00;;;14.00;45.00;;;;;;5049028;28;20040;-73
2022/05/29 03:50:33;;;;;;;2.83;1.20;;;13.90;44.90;;;;;;5039873;28;20060;-74
2022/05/29 03:53:00;;;;;;;3.05;1.80;;;13.90;45.00;;;;;;5034672;28;20127;-75
2022/05/29 03:55:26;;;;;;;2.17;1.10;;;13.80;44.80;;;;;;5064215;28;20503;-74
2022/05/29 03:57:52;;;;;;;2.08;0.90;;;13.80;44.90;;;;;;5068500;28;20068;-74
2022/05/29 04:00:20;;;;;;;2.60;1.33;;;13.80;45.60;;;;;;5063617;28;20582;-75
2022/05/29 04:02:47;;;;;;;2.95;1.52;;;13.70;44.80;;;;;;5036197;28;20044;-75
2022/05/29 04:05:19;;;;;;;2.63;0.90;;;13.70;44.90;;;;;;5050326;28;20028;-74
2022/05/29 04:13:17;;;;;;;2.08;1.30;;;13.70;45.10;;;;;;5068602;28;20040;-76
2022/05/29 04:15:46;;;;;;;2.75;1.00;;;13.60;44.90;;;;;;5049865;28;20689;-74
2022/05/29 04:18:17;;;;;;;3.78;1.00;;;13.60;45.00;;;;;;5062803;28;20025;-74
2022/05/29 04:20:44;;;;;;;2.42;0.80;;;13.50;44.80;;;;;;5061764;28;20143;-74
2022/05/29 04:23:09;;;;;;;2.28;1.08;;;13.50;44.80;;;;;;5061125;28;20032;-75
2022/05/29 04:25:35;;;;;;;1.77;0.93;;;13.50;44.90;;;;;;5051042;28;20028;-75
2022/05/29 04:28:01;;;;;;;3.50;2.15;;;13.50;45.00;;;;;;5050314;28;20484;-75
2022/05/29 04:30:28;;;;;;;1.23;0.60;;;13.50;45.00;;;;;;5043616;28;20029;-75
2022/05/29 04:33:00;;;;;;;1.25;0.82;;;13.50;45.00;;;;;;5061310;28;20024;-75
2022/05/29 04:35:34;;;;;;;2.92;1.10;;;13.50;45.10;;;;;;5069305;28;20028;-76
2022/05/29 04:38:00;;;;;;;1.55;0.80;;;13.50;45.20;;;;;;5071096;28;20074;-76
2022/05/29 04:40:27;;;;;;;1.25;0.82;;;13.50;45.10;;;;;;5063901;28;20099;-74
2022/05/29 04:42:52;;;;;;;2.47;0.90;;;13.40;45.00;;;;;;5071127;28;20040;-74
2022/05/29 04:45:18;;;;;;;0.95;0.60;;;13.40;45.00;;;;;;5071641;28;20591;-74
2022/05/29 04:47:44;;;;;;;1.95;0.98;;;13.40;45.10;;;;;;5035421;28;20084;-74
2022/05/29 04:50:11;;;;;;;2.53;1.38;;;13.40;45.20;;;;;;5025374;28;20033;-74
2022/05/29 04:52:37;;;;;;;1.90;0.95;;;13.40;45.20;;;;;;5034775;28;20097;-75
2022/05/29 04:55:04;;;;;;;1.95;1.00;;;13.40;45.30;;;;;;5033157;28;20056;-74
2022/05/29 04:57:29;;;;;;;2.03;0.77;;;13.40;45.30;;;;;;5018990;28;20060;-74
2022/05/29 04:59:57;;;;;;;1.65;0.82;;;13.40;45.30;;;;;;5036322;28;20602;-74
2022/05/29 05:02:23;;;;;;;2.42;0.80;;;13.40;45.30;;;;;;5060034;28;20037;-74
2022/05/29 05:04:49;;;;;;;2.03;1.10;;;13.40;45.30;;;;;;5015781;28;20139;-75
2022/05/29 05:07:15;;;;;;;1.08;0.77;;;13.40;45.40;;;;;;5058815;28;20118;-76
2022/05/29 05:09:41;;;;;;;1.27;0.88;;;13.40;45.40;;;;;;5056339;28;20119;-75
2022/05/29 05:12:07;;;;;;;1.80;0.65;;;13.40;45.40;;;;;;5048946;28;20115;-74
2022/05/29 05:14:34;;;;;;;1.25;0.70;;;13.50;45.60;;;;;;5040098;28;20033;-74
2022/05/29 05:17:00;;;;;;;2.00;0.70;;;13.50;45.60;;;;;;5036857;28;20032;-72
2022/05/29 05:19:26;;;;;;;1.40;0.70;;;13.50;45.50;;;;;;5048608;28;20037;-73
2022/05/29 05:21:52;;;;;;;1.10;0.60;;;13.50;45.50;;;;;;5041824;28;20112;-73
2022/05/29 05:24:19;;;;;;;0.77;0.60;;;13.60;45.60;;;;;;5017943;28;20182;-72
2022/05/29 05:26:45;;;;;;;1.65;0.80;;;13.60;45.50;;;;;;5060081;28;20117;-72
2022/05/29 05:29:12;;;;;;;2.25;1.08;;;13.70;45.70;;;;;;5034162;28;20536;-72
2022/05/29 05:31:38;;;;;;;1.50;0.80;;;13.70;45.60;;;;;;5059921;28;20036;-72
2022/05/29 05:34:04;;;;;;;1.33;0.60;;;13.80;45.60;;;;;;5040824;28;20060;-72
2022/05/29 05:36:30;;;;;;;1.60;0.60;;;13.90;45.70;;;;;;5034137;28;20533;-74
2022/05/29 05:38:55;;;;;;;2.17;1.25;;;13.90;45.60;;;;;;5030490;28;20118;-74
2022/05/29 05:41:22;;;;;;;0.90;0.50;;;14.00;45.60;;;;;;5053092;28;20029;-72
2022/05/29 05:43:48;;;;;;;0.52;0.50;;;14.10;45.70;;;;;;5034461;28;20451;-74
2022/05/29 05:46:16;;;;;;;1.67;0.80;;;14.10;45.60;;;;;;5049772;28;20149;-76
2022/05/29 05:48:43;;;;;;;3.63;0.73;;;14.20;45.80;;;;;;5045107;28;20420;-74
2022/05/29 05:51:10;;;;;;;0.73;0.60;;;14.20;45.70;;;;;;5045369;28;20114;-72
2022/05/29 05:53:37;;;;;;;0.88;0.70;;;14.30;45.80;;;;;;5060342;28;20032;-74
2022/05/29 05:56:10;;;;;;;0.57;0.45;;;14.40;45.90;;;;;;5057386;28;20029;-75
2022/05/29 05:58:37;;;;;;;2.50;0.95;;;14.50;46.00;;;;;;5064079;28;20032;-76
2022/05/29 06:01:05;;;;;;;2.25;1.00;;;14.60;45.90;;;;;;5045696;28;20024;-74
2022/05/29 06:03:31;;;;;;;2.70;1.63;;;14.80;46.10;;;;;;5058429;28;20044;-74
2022/05/29 06:05:58;;;;;;;1.52;0.90;;;15.00;46.40;;;;;;5064982;28;20491;-74
2022/05/29 06:08:24;;;;;;;1.63;0.68;;;15.10;46.20;;;;;;5058835;28;20060;-74
2022/05/29 06:10:50;;;;;;;1.38;0.70;;;15.30;46.30;;;;;;5065090;28;20025;-74
2022/05/29 06:13:16;;;;;;;1.30;0.63;;;15.50;46.40;;;;;;5046663;28;20028;-75
2022/05/29 06:15:44;;;;;;;2.17;0.63;;;15.70;46.40;;;;;;5065510;28;20101;-75
2022/05/29 06:18:11;;;;;;;1.00;0.50;;;15.80;46.30;;;;;;5045832;28;20034;-75
2022/05/29 06:20:37;;;;;;;1.20;0.68;;;16.00;46.40;;;;;;5042462;28;20044;-75
2022/05/29 06:23:03;;;;;;;1.52;0.65;;;16.10;46.40;;;;;;5048985;28;20090;-76
2022/05/29 06:25:29;;;;;;;2.15;0.40;;;16.30;46.50;;;;;;5025692;28;20033;-75
2022/05/29 06:27:54;;;;;;;1.98;0.80;;;16.60;46.60;;;;;;5030930;28;20280;-75
2022/05/29 06:30:20;;;;;;;1.92;0.70;;;17.00;46.60;;;;;;5065461;28;20602;-74
2022/05/29 06:32:46;;;;;;;1.65;0.90;;;17.60;46.50;;;;;;5044596;28;20124;-74
2022/05/29 06:35:14;;;;;;;1.55;0.50;;;18.20;46.20;;;;;;5065199;28;20492;-77
2022/05/29 06:37:41;;;;;;;4.25;0.70;;;18.50;46.00;;;;;;5063215;28;20029;-75
2022/05/29 06:40:09;;;;;;;1.02;0.63;;;18.90;46.00;;;;;;5044358;28;20033;-77
2022/05/29 06:42:36;;;;;;;2.08;0.55;;;19.40;46.00;;;;;;5042756;28;20040;-75
2022/05/29 06:45:03;;;;;;;1.30;0.63;;;20.00;46.00;;;;;;5064388;28;20029;-75
2022/05/29 06:47:29;;;;;;;2.20;0.68;;;20.50;45.80;;;;;;5042673;28;20049;-75
2022/05/29 06:49:54;;;;;;;1.10;1.00;;;20.90;45.50;;;;;;5046670;28;20605;-74
2022/05/29 06:52:20;;;;;;;0.93;0.40;;;20.90;45.30;;;;;;5046215;28;20063;-77
2022/05/29 06:54:46;;;;;;;0.63;0.63;;;21.00;45.40;;;;;;5052244;28;20716;-77
2022/05/29 06:57:36;;;;;;;1.42;0.77;;;21.20;45.60;;;;;;5052553;28;20029;-77
2022/05/29 07:08:02;;;;;;;1.73;0.45;;;20.80;45.10;;;;;;5054432;28;20039;-76
2022/05/29 07:10:31;;;;;;;1.05;0.63;;;20.60;44.90;;;;;;5056514;28;20286;-75
2022/05/29 07:12:58;;;;;;;1.55;0.57;;;20.50;44.90;;;;;;5062578;28;20496;-75
2022/05/29 07:15:24;;;;;;;1.00;0.50;;;20.40;44.90;;;;;;5059989;28;20024;-76
2022/05/29 07:17:50;;;;;;;1.90;0.60;;;20.20;44.70;;;;;;5030231;28;20059;-76
2022/05/29 07:20:16;;;;;;;2.28;1.05;;;20.10;44.60;;;;;;5046872;28;20118;-77
2022/05/29 07:22:43;;;;;;;1.20;0.57;;;20.10;44.80;;;;;;5043520;28;20114;-76
2022/05/29 07:25:13;;;;;;;2.75;0.73;;;20.10;44.70;;;;;;5038408;28;20094;-76
2022/05/29 07:27:39;;;;;;;1.88;0.95;;;20.10;44.50;;;;;;5048664;28;20431;-78
2022/05/29 07:30:06;;;;;;;0.90;0.50;;;20.20;44.60;;;;;;5058502;28;20472;-76
2022/05/29 07:32:32;;;;;;;1.95;0.93;;;20.30;44.50;;;;;;5066636;28;20032;-76
2022/05/29 07:34:59;;;;;;;1.15;0.60;;;20.40;44.50;;;;;;5066657;28;20578;-76
2022/05/29 07:37:26;;;;;;;2.00;0.60;;;20.50;44.40;;;;;;5045073;28;20040;-77
2022/05/29 07:39:53;;;;;;;2.22;0.60;;;20.50;44.20;;;;;;5052744;28;20114;-77
2022/05/29 07:45:07;;;;;;;1.95;0.93;;;20.60;44.20;;;;;;5057733;28;20258;-76
2022/05/29 07:47:40;;;;;;;0.98;0.50;;;20.60;44.10;;;;;;5062979;28;20135;-78
2022/05/29 07:50:06;;;;;;;;;;;20.90;44.10;;;;;;5048103;28;20048;-77
2022/05/29 07:52:32;;;;;;;1.73;0.80;;;21.30;44.20;;;;;;5050396;28;19915;-77
2022/05/29 07:54:58;;;;;;;1.27;0.80;;;21.40;43.90;;;;;;5047479;28;20033;-77
2022/05/29 07:57:25;;;;;;;1.85;0.68;;;21.50;44.50;;;;;;5067859;28;20032;-76
2022/05/29 07:59:51;;;;;;;2.20;0.70;;;21.60;44.00;;;;;;5057074;28;20044;-76
2022/05/29 08:02:17;;;;;;;1.30;0.50;;;21.60;43.90;;;;;;5045566;28;20564;-76
2022/05/29 08:04:44;;;;;;;1.83;0.60;;;21.70;44.00;;;;;;5066425;28;20614;-76
2022/05/29 08:07:11;;;;;;;3.13;0.77;;;21.80;44.00;;;;;;5049043;28;20713;-76
2022/05/29 08:09:37;;;;;;;2.22;0.93;;;22.00;44.10;;;;;;5067394;28;20031;-76
2022/05/29 08:12:04;;;;;;;1.95;0.60;;;22.30;44.30;;;;;;5022942;28;20032;-75
2022/05/29 08:14:30;;;;;;;2.92;0.93;;;22.40;44.00;;;;;;5066921;28;20115;-74
2022/05/29 08:16:56;;;;;;;2.30;0.80;;;22.60;44.10;;;;;;5060507;28;20039;-75
2022/05/29 08:19:23;;;;;;;1.38;0.80;;;22.70;44.10;;;;;;5063955;28;20029;-75
2022/05/29 08:21:49;;;;;;;2.67;0.70;;;22.70;44.00;;;;;;5044012;28;20032;-76
2022/05/29 08:32:29;;;;;;;0.80;0.50;;;23.00;44.10;;;;;;5048684;28;20078;-75
2022/05/29 08:34:55;;;;;;;2.28;0.50;;;23.10;44.10;;;;;;5061684;28;20033;-76
2022/05/29 08:37:21;;;;;;;0.75;0.65;;;23.20;44.00;;;;;;5068147;28;20039;-76
2022/05/29 08:39:47;;;;;;;2.10;0.60;;;23.40;44.10;;;;;;5055988;28;20471;-76
2022/05/29 08:42:16;;;;;;;0.30;0.30;;;23.60;44.10;;;;;;5048426;28;20064;-76
2022/05/29 08:44:51;;;;;;;1.33;0.77;;;23.80;44.20;;;;;;5048277;28;20103;-75
2022/05/29 08:47:28;;;;;;;1.23;0.45;;;24.10;44.20;;;;;;5059389;28;20149;-76
2022/05/29 08:49:55;;;;;;;1.65;0.70;;;24.40;44.10;;;;;;5043515;28;20040;-80
2022/05/29 08:52:39;;;;;;;1.70;0.77;;;24.70;44.20;;;;;;5066825;28;20025;-76
2022/05/29 08:55:23;;;;;;;3.78;0.60;;;25.10;44.00;;;;;;5060007;28;20032;-76
2022/05/29 08:58:04;;;;;;;1.42;0.70;;;25.70;42.70;;;;;;5054711;28;20063;-76
2022/05/29 09:00:50;;;;;;;4.68;1.15;;;25.80;41.90;;;;;;5065061;28;20034;-77
2022/05/29 09:03:43;;;;;;;6.50;1.30;;;25.60;40.90;;;;;;5041432;28;20245;-78
2022/05/29 09:06:16;;;;;;;3.00;1.27;;;25.30;40.60;;;;;;5049932;28;20462;-77
2022/05/29 09:08:53;;;;;;;2.70;1.00;;;24.90;40.70;;;;;;5045895;28;20024;-75
2022/05/29 09:11:41;;;;;;;3.55;1.75;;;24.40;40.10;;;;;;5048802;28;20024;-80
2022/05/29 09:14:27;;;;;;;2.83;0.88;;;24.00;39.70;;;;;;5063639;28;20033;-78
2022/05/29 09:17:16;;;;;;;2.60;0.77;;;23.50;38.90;;;;;;5039858;28;20424;-78
2022/05/29 09:19:48;;;;;;;1.77;0.77;;;23.10;38.60;;;;;;5058345;28;20102;-81
2022/05/29 09:22:35;;;;;;;2.83;0.98;;;22.80;38.60;;;;;;5057208;28;20041;-82
2022/05/29 09:25:16;;;;;;;2.38;0.80;;;22.50;38.30;;;;;;5039693;28;20083;-74
2022/05/29 09:27:49;;;;;;;1.75;0.63;;;22.40;38.10;;;;;;5057354;28;20047;-74
2022/05/29 09:30:17;;;;;;;3.90;0.65;;;22.30;37.90;;;;;;5065332;28;20017;-75
2022/05/29 09:32:56;;;;;;;1.95;0.80;;;22.20;37.80;;;;;;5065549;28;20036;-74
2022/05/29 09:35:30;;;;;;;1.88;0.73;;;22.20;37.60;;;;;;5051408;28;20028;-73
2022/05/29 09:38:08;;;;;;;1.92;0.73;;;22.20;37.60;;;;;;5041112;28;20021;-73
2022/05/29 09:40:41;;;;;;;2.05;0.70;;;22.30;37.70;;;;;;5039284;28;20466;-75
2022/05/29 09:43:20;;;;;;;2.85;1.05;;;22.40;37.70;;;;;;5067014;28;20704;-76
2022/05/29 09:45:46;;;;;;;3.38;0.90;;;22.60;37.70;;;;;;5048811;28;20021;-74
2022/05/29 09:51:24;;;;;;;;;;;22.90;37.40;;;;;;5066850;28;20441;-73
2022/05/29 09:53:56;;;;;;;2.97;1.23;;;23.00;37.70;;;;;;5052235;28;20225;-74
2022/05/29 09:56:29;;;;;;;4.20;1.23;;;23.20;38.00;;;;;;5068087;28;20020;-74
2022/05/29 09:59:18;;;;;;;2.10;0.93;;;23.20;37.80;;;;;;5047970;28;20087;-74
2022/05/29 10:01:45;;;;;;;3.70;1.17;;;23.40;37.80;;;;;;5067385;28;20037;-74
2022/05/29 10:04:30;;;;;;;1.58;0.65;;;23.40;37.80;;;;;;5066863;28;20329;-73
2022/05/29 10:06:58;;;;;;;3.70;1.05;;;23.20;37.20;;;;;;5037846;28;20039;-73
2022/05/29 10:09:26;;;;;;;2.35;0.75;;;23.00;37.30;;;;;;5071460;28;20032;-73
2022/05/29 10:11:59;;;;;;;2.70;0.70;;;22.70;37.00;;;;;;5076522;28;20029;-73
2022/05/29 10:14:36;;;;;;;3.35;0.93;;;22.60;37.00;;;;;;5070165;28;20032;-74
2022/05/29 10:17:11;;;;;;;1.95;0.68;;;22.50;37.10;;;;;;5078252;28;20071;-73
2022/05/29 10:19:40;;;;;;;1.98;0.60;;;22.50;37.00;;;;;;5062642;28;20410;-73
2022/05/29 10:22:22;;;;;;;2.78;0.90;;;22.60;37.10;;;;;;5090446;28;20048;-73
2022/05/29 10:24:49;;;;;;;2.00;0.85;;;22.70;37.10;;;;;;5062259;28;20021;-73
2022/05/29 10:27:35;;;;;;;1.98;0.60;;;22.80;37.20;;;;;;5072151;28;20107;-73
2022/05/29 10:30:10;;;;;;;2.80;0.90;;;22.90;36.90;;;;;;5063304;28;20588;-73
2022/05/29 10:32:40;;;;;;;1.60;0.80;;;23.10;37.10;;;;;;5063123;28;20110;-74
2022/05/29 10:35:28;;;;;;;1.58;0.85;;;23.30;37.10;;;;;;5028860;28;20064;-80
2022/05/29 10:37:55;;;;;;;3.97;1.00;;;23.60;37.10;;;;;;5055963;28;20055;-81
2022/05/29 10:40:25;;;;;;;1.65;0.80;;;23.60;37.10;;;;;;5045662;28;20032;-80
2022/05/29 10:42:56;;;;;;;2.35;1.35;;;23.60;37.10;;;;;;5052282;28;20130;-74
2022/05/29 10:45:40;;;;;;;2.53;0.73;;;23.70;37.20;;;;;;5045747;28;20041;-82
2022/05/29 10:48:34;;;;;;;1.10;0.43;;;23.70;37.10;;;;;;5042750;28;20389;-80
2022/05/29 10:51:32;;;;;;;2.15;0.95;;;23.80;37.40;;;;;;5028085;28;20034;-82
2022/05/29 10:54:11;;;;;;;1.65;0.70;;;23.70;37.10;;;;;;5021411;28;20039;-81
2022/05/29 10:57:16;;;;;;;2.58;1.08;;;23.50;36.80;;;;;;5012938;28;20396;-82
2022/05/29 11:00:09;;;;;;;9.32;1.33;;;23.40;37.30;;;;;;5026199;28;20037;-73
2022/05/29 11:03:23;;;;;;;3.10;0.70;;;23.20;36.60;;;;;;5031829;28;20034;-74
2022/05/29 11:06:20;;;;;;;1.98;0.70;;;23.00;36.50;;;;;;5043192;28;20029;-73
2022/05/29 11:08:46;;;;;;;2.70;0.70;;;22.90;36.50;;;;;;5019000;28;20029;-73
2022/05/29 11:11:37;;;;;;;2.55;1.13;;;22.70;36.50;;;;;;5013567;28;20025;-73
2022/05/29 11:14:19;;;;;;;3.28;0.85;;;22.60;36.40;;;;;;5019246;28;20128;-72
2022/05/29 11:17:01;;;;;;;5.47;1.23;;;22.50;36.40;;;;;;5040574;28;20029;-72
2022/05/29 11:19:49;;;;;;;2.10;0.70;;;22.40;36.40;;;;;;5015598;28;20090;-72
2022/05/29 11:22:32;;;;;;;1.85;0.75;;;22.30;36.30;;;;;;5045778;28;20412;-72
2022/05/29 11:25:29;;;;;;;1.95;1.35;;;22.20;36.10;;;;;;5043633;28;20443;-72
2022/05/29 11:28:13;;;;;;;1.50;0.60;;;22.00;36.00;;;;;;5024126;28;20515;-71
2022/05/29 11:31:10;;;;;;;3.47;0.95;;;21.80;35.90;;;;;;5040348;28;20448;-71
2022/05/29 11:33:45;;;;;;;3.42;2.15;;;21.80;36.20;;;;;;5037732;28;20479;-71
2022/05/29 11:36:18;;;;;;;6.22;2.67;;;21.70;36.20;;;;;;5026847;28;20029;-72
2022/05/29 11:38:53;;;;;;;;;;;21.70;36.30;;;;;;5045430;28;20037;-74
2022/05/29 11:41:29;;;;;;;2.75;1.35;;;21.80;36.40;;;;;;5027838;28;19908;-79
2022/05/29 11:44:03;;;;;;;2.78;1.70;;;21.80;36.30;;;;;;5029067;28;20033;-74
2022/05/29 11:52:37;;;;;;;4.05;1.48;;;22.00;36.40;;;;;;5047589;28;20029;-79
2022/05/29 11:55:12;;;;;;;2.13;1.10;;;22.00;36.40;;;;;;5041698;28;20033;-78
2022/05/29 11:58:11;;;;;;;2.60;0.90;;;21.90;36.20;;;;;;5042059;28;20798;-75
2022/05/29 12:01:15;;;;;;;2.50;1.02;;;21.80;36.10;;;;;;5049550;28;20071;-79
2022/05/29 12:03:51;;;;;;;2.42;1.20;;;21.70;36.20;;;;;;4985983;28;20323;-80
2022/05/29 12:06:43;;;;;;;4.55;0.80;;;21.60;36.30;;;;;;5018404;28;20045;-80
2022/05/29 12:09:35;;;;;;;1.73;0.70;;;21.50;36.20;;;;;;5033068;28;20033;-79
2022/05/29 12:12:04;;;;;;;4.20;0.85;;;21.40;36.30;;;;;;5038578;28;20040;-78
2022/05/29 12:15:03;;;;;;;2.50;0.60;;;21.40;36.40;;;;;;5056306;28;20041;-79
2022/05/29 12:17:30;;;;;;;2.75;0.70;;;21.40;36.40;;;;;;5007446;28;20216;-79
2022/05/29 12:20:03;;;;;;;2.53;0.75;;;21.40;36.40;;;;;;5047911;28;20092;-81
2022/05/29 12:22:32;;;;;;;;;;;21.50;36.40;;;;;;5029709;28;20039;-80
2022/05/29 12:24:58;;;;;;;2.47;0.65;;;21.60;36.60;;;;;;5060592;28;19920;-80
2022/05/29 12:27:27;;;;;;;2.65;0.70;;;21.70;36.70;;;;;;4991738;28;20041;-77
2022/05/29 12:30:21;;;;;;;2.58;0.70;;;21.70;36.60;;;;;;5062044;28;20017;-77
2022/05/29 12:32:47;;;;;;;2.88;0.85;;;21.90;36.80;;;;;;5056994;28;20037;-77
2022/05/29 12:35:16;;;;;;;4.47;0.95;;;21.90;36.80;;;;;;5045967;28;20017;-79
2022/05/29 12:37:42;;;;;;;2.00;0.60;;;21.90;36.80;;;;;;5034977;28;20063;-79
2022/05/29 12:40:20;;;;;;;1.63;0.57;;;21.90;36.90;;;;;;5047102;28;20096;-79
2022/05/29 12:43:11;;;;;;;1.88;0.85;;;21.80;36.80;;;;;;5041780;28;20032;-75
2022/05/29 12:46:07;;;;;;;3.38;1.05;;;21.80;36.90;;;;;;5060361;28;20139;-75
2022/05/29 12:48:55;;;;;;;3.08;1.00;;;21.70;36.90;;;;;;5045219;28;20037;-75
2022/05/29 12:52:07;;;;;;;2.97;0.75;;;21.60;36.90;;;;;;5046610;28;20037;-74
2022/05/29 12:54:39;;;;;;;3.45;1.33;;;21.50;36.80;;;;;;5034201;28;20040;-75
2022/05/29 12:57:11;;;;;;;2.78;0.85;;;21.40;36.90;;;;;;5061278;28;20399;-75
2022/05/29 13:00:09;;;;;;;1.67;0.90;;;21.30;36.80;;;;;;5040661;28;20029;-75
2022/05/29 13:03:17;;;;;;;3.97;1.20;;;21.20;36.90;;;;;;5029283;28;20041;-74
2022/05/29 13:05:55;;;;;;;2.65;1.00;;;21.10;37.00;;;;;;5003166;28;20044;-75
2022/05/29 13:08:41;;;;;;;4.93;1.38;;;21.00;37.00;;;;;;5053430;28;20782;-74
2022/05/29 13:11:09;;;;;;;4.40;1.17;;;21.00;37.20;;;;;;5054634;28;20060;-74
2022/05/29 13:13:43;;;;;;;3.78;1.13;;;20.90;37.20;;;;;;5029886;28;20037;-74
2022/05/29 13:16:45;;;;;;;2.50;0.93;;;20.90;37.30;;;;;;5046177;28;20074;-73
2022/05/29 13:19:15;;;;;;;1.77;1.23;;;20.80;37.20;;;;;;4972141;28;20098;-74
2022/05/29 13:22:04;;;;;;;2.50;0.73;;;20.80;37.20;;;;;;5042520;28;20094;-74
2022/05/29 13:24:32;;;;;;;2.40;0.80;;;20.80;37.20;;;;;;5048046;28;20037;-74
2022/05/29 13:27:13;;;;;;;1.90;0.80;;;20.80;37.20;;;;;;5057975;28;20033;-74
2022/05/29 13:29:47;;;;;;;2.20;1.00;;;20.80;37.30;;;;;;5043908;28;20037;-74
2022/05/29 13:32:13;;;;;;;2.70;1.15;;;20.90;37.60;;;;;;5039074;28;20570;-74
2022/05/29 13:34:43;;;;;;;2.83;1.30;;;20.90;37.70;;;;;;5049369;28;20044;-74
2022/05/29 13:37:40;;;;;;;3.05;1.38;;;20.90;37.60;;;;;;5037365;28;20353;-75
2022/05/29 13:40:09;;;;;;;3.03;1.10;;;21.00;37.70;;;;;;5039510;28;20037;-74
2022/05/29 13:42:36;;;;;;;3.22;1.50;;;21.20;37.90;;;;;;5049780;28;20530;-75
2022/05/29 13:45:25;;;;;;;2.30;0.98;;;21.30;37.90;;;;;;5041300;28;20511;-74
2022/05/29 13:48:24;;;;;;;2.15;1.08;;;21.40;37.90;;;;;;5048835;28;20053;-74
2022/05/29 13:50:56;;;;;;;2.78;1.17;;;21.40;37.80;;;;;;5039480;28;20027;-74
2022/05/29 13:53:33;;;;;;;3.78;0.85;;;21.50;37.90;;;;;;5042424;28;20035;-75
2022/05/29 13:56:06;;;;;;;4.15;1.35;;;21.50;37.80;;;;;;5045612;28;20369;-74
2022/05/29 14:04:38;;;;;;;3.78;1.20;;;21.70;38.00;;;;;;5047942;28;20063;-74